Time;durP1;ratioP1;P1;durP2;ratioP2;P2;SDS_P1;SDS_P2;PMS_P1;PMS_P2;Temp;Humidity;BMP_temperature;BMP_pressure;BME280_temperature;BME280_humidity;BME280_pressure;Samples;Min_cycle;Max_cycle;Signal;HPM_P1;HPM_P2
2022/07/25 00:02:06;;;;;;;4.28;2.38;;;25.90;51.70;;;;;;6158457;28;80290;-66
2022/07/25 00:05:07;;;;;;;3.08;2.40;;;25.70;51.70;;;;;;6148063;28;80558;-65
2022/07/25 00:08:07;;;;;;;3.47;2.03;;;25.50;51.60;;;;;;6156043;28;81455;-65
2022/07/25 00:11:08;;;;;;;4.18;2.65;;;25.50;52.40;;;;;;6161553;28;87447;-65
2022/07/25 00:14:08;;;;;;;2.97;2.13;;;25.50;51.70;;;;;;6147939;28;81492;-65
2022/07/25 00:17:09;;;;;;;4.13;2.17;;;25.50;51.70;;;;;;6158288;28;80362;-65
2022/07/25 00:20:09;;;;;;;2.13;1.92;;;25.60;51.70;;;;;;6158263;28;80495;-66
2022/07/25 00:23:10;;;;;;;5.38;2.80;;;25.70;51.50;;;;;;6147211;28;80481;-66
2022/07/25 00:26:10;;;;;;;4.63;2.40;;;25.70;51.50;;;;;;6160803;28;82901;-65
2022/07/25 00:29:11;;;;;;;4.68;2.35;;;25.60;51.40;;;;;;6155949;28;81697;-65
2022/07/25 00:32:11;;;;;;;4.03;2.53;;;25.40;51.40;;;;;;6143468;28;81269;-65
2022/07/25 00:35:12;;;;;;;3.67;2.55;;;25.20;51.60;;;;;;6159559;28;80292;-65
2022/07/25 00:38:12;;;;;;;7.57;2.80;;;25.30;51.80;;;;;;6146596;28;80547;-64
2022/07/25 00:41:13;;;;;;;6.03;3.53;;;25.40;51.70;;;;;;6156304;28;81490;-64
2022/07/25 00:44:13;;;;;;;7.35;2.63;;;25.40;51.60;;;;;;6149437;28;81155;-64
2022/07/25 00:47:14;;;;;;;7.25;2.30;;;25.50;51.60;;;;;;6160623;28;80010;-64
2022/07/25 00:50:14;;;;;;;4.13;2.65;;;25.50;51.60;;;;;;6148236;28;80871;-63
2022/07/25 00:53:15;;;;;;;4.28;2.25;;;25.50;51.60;;;;;;6160295;28;80418;-64
2022/07/25 00:56:15;;;;;;;3.58;2.65;;;25.60;51.70;;;;;;6164705;28;81102;-64
2022/07/25 00:59:16;;;;;;;4.10;2.67;;;25.50;51.60;;;;;;6160434;28;80254;-63
2022/07/25 01:02:17;;;;;;;8.50;3.20;;;25.40;51.80;;;;;;6159831;28;80531;-63
2022/07/25 01:05:17;;;;;;;3.97;2.70;;;25.40;51.80;;;;;;6140439;28;81584;-63
2022/07/25 01:08:17;;;;;;;5.65;2.42;;;25.40;51.80;;;;;;6150521;28;80524;-63
2022/07/25 01:11:18;;;;;;;4.40;2.67;;;25.40;51.90;;;;;;6159678;28;80608;-64
2022/07/25 01:14:18;;;;;;;3.83;2.45;;;25.40;51.80;;;;;;6159617;28;80547;-64
2022/07/25 01:17:19;;;;;;;5.13;2.80;;;25.40;51.80;;;;;;6152502;28;80465;-64
2022/07/25 01:20:19;;;;;;;3.63;2.40;;;25.40;51.80;;;;;;6158296;28;81321;-64
2022/07/25 01:23:20;;;;;;;3.58;2.28;;;25.50;51.90;;;;;;6149663;28;80648;-63
2022/07/25 01:26:20;;;;;;;4.72;2.58;;;25.50;51.60;;;;;;6147095;28;80370;-64
2022/07/25 01:29:21;;;;;;;3.58;2.58;;;25.30;51.80;;;;;;6138370;28;80502;-64
2022/07/25 01:32:21;;;;;;;5.95;3.10;;;25.20;52.10;;;;;;6159641;28;80166;-64
2022/07/25 01:35:22;;;;;;;4.15;2.70;;;25.20;52.20;;;;;;6154869;28;80818;-64
2022/07/25 01:38:22;;;;;;;5.78;2.83;;;25.20;52.10;;;;;;6154060;28;80618;-64
2022/07/25 01:41:23;;;;;;;3.97;2.83;;;25.30;52.00;;;;;;6152000;28;80560;-65
2022/07/25 01:44:23;;;;;;;6.50;2.50;;;25.30;52.00;;;;;;6154053;28;81543;-65
2022/07/25 01:47:24;;;;;;;4.15;2.38;;;25.40;52.10;;;;;;6147228;28;81037;-64
2022/07/25 01:50:24;;;;;;;3.20;2.40;;;25.50;52.10;;;;;;6140161;28;80431;-64
2022/07/25 01:53:25;;;;;;;5.88;2.85;;;25.60;52.00;;;;;;6159419;28;80612;-64
2022/07/25 01:56:25;;;;;;;5.20;2.95;;;25.70;51.90;;;;;;6141739;28;81512;-65
2022/07/25 01:59:26;;;;;;;3.33;2.42;;;25.70;51.70;;;;;;6151710;28;81475;-64
2022/07/25 02:02:26;;;;;;;4.85;2.60;;;25.80;51.80;;;;;;6155470;28;80596;-64
2022/07/25 02:05:27;;;;;;;4.53;2.92;;;25.90;51.90;;;;;;6150270;28;83078;-64
2022/07/25 02:08:27;;;;;;;3.10;2.63;;;25.90;51.80;;;;;;6139909;28;80691;-64
2022/07/25 02:11:28;;;;;;;8.13;3.08;;;25.90;51.60;;;;;;6157465;28;80430;-63
2022/07/25 02:14:28;;;;;;;4.88;2.95;;;25.90;51.60;;;;;;6158698;28;80843;-64
2022/07/25 02:17:29;;;;;;;4.03;3.20;;;25.90;51.50;;;;;;6147550;28;80939;-65
2022/07/25 02:20:29;;;;;;;7.22;3.20;;;25.70;51.30;;;;;;6151611;28;80350;-65
2022/07/25 02:23:30;;;;;;;3.60;2.75;;;25.70;51.60;;;;;;6157252;28;80570;-64
2022/07/25 02:26:30;;;;;;;4.03;2.88;;;25.70;51.70;;;;;;6156737;28;80419;-64
2022/07/25 02:29:31;;;;;;;4.40;2.72;;;25.70;51.80;;;;;;6157540;28;82950;-65
2022/07/25 02:32:31;;;;;;;4.82;3.00;;;25.70;51.60;;;;;;6137914;28;81775;-65
2022/07/25 02:35:32;;;;;;;4.55;2.75;;;25.70;51.50;;;;;;6153110;28;80020;-65
2022/07/25 02:38:33;;;;;;;6.72;3.10;;;25.70;51.70;;;;;;6149135;28;80299;-65
2022/07/25 02:41:33;;;;;;;4.55;3.15;;;25.70;51.60;;;;;;6157331;28;81079;-66
2022/07/25 02:44:34;;;;;;;4.47;3.22;;;25.80;51.60;;;;;;6149678;28;80395;-65
2022/07/25 02:47:34;;;;;;;6.47;2.83;;;25.70;51.30;;;;;;6153406;28;80652;-66
2022/07/25 02:50:35;;;;;;;4.05;2.67;;;25.80;51.30;;;;;;6157306;28;80706;-64
2022/07/25 02:53:35;;;;;;;3.97;2.60;;;25.70;51.30;;;;;;6152991;28;80538;-64
2022/07/25 02:56:35;;;;;;;9.80;3.33;;;25.60;51.30;;;;;;6144654;28;81419;-65
2022/07/25 02:59:36;;;;;;;4.95;3.03;;;25.50;51.40;;;;;;6152543;28;80548;-64
2022/07/25 03:02:36;;;;;;;3.88;2.70;;;25.40;51.60;;;;;;6150069;28;80122;-66
2022/07/25 03:05:37;;;;;;;6.97;3.63;;;25.40;51.70;;;;;;6157141;28;81429;-65
2022/07/25 03:08:37;;;;;;;7.00;3.33;;;25.40;51.80;;;;;;6140519;28;82311;-65
2022/07/25 03:11:38;;;;;;;6.00;3.30;;;25.30;51.70;;;;;;6160267;28;81458;-64
2022/07/25 03:14:38;;;;;;;5.20;2.85;;;25.40;51.90;;;;;;6161902;28;81588;-64
2022/07/25 03:17:39;;;;;;;8.15;3.03;;;25.50;51.80;;;;;;6161750;28;81884;-64
2022/07/25 03:20:39;;;;;;;4.45;3.15;;;25.50;51.70;;;;;;6161367;28;80892;-64
2022/07/25 03:23:40;;;;;;;12.38;3.63;;;25.50;51.70;;;;;;6151770;28;80525;-64
2022/07/25 03:26:40;;;;;;;6.13;3.38;;;25.50;52.00;;;;;;6153350;28;81537;-66
2022/07/25 03:29:41;;;;;;;5.38;3.30;;;25.60;51.90;;;;;;6156783;28;80351;-65
2022/07/25 03:32:41;;;;;;;6.47;4.07;;;25.60;51.70;;;;;;6154692;28;80787;-64
2022/07/25 03:35:42;;;;;;;6.85;4.03;;;25.50;51.80;;;;;;6147874;28;80185;-74
2022/07/25 03:38:42;;;;;;;7.47;3.95;;;25.50;52.00;;;;;;6151705;28;80576;-74
2022/07/25 03:41:43;;;;;;;7.20;4.93;;;25.50;52.00;;;;;;6148662;28;81439;-75
2022/07/25 03:44:43;;;;;;;15.88;6.47;;;25.60;52.00;;;;;;6127108;28;80376;-78
2022/07/25 03:47:44;;;;;;;13.02;6.60;;;25.60;51.90;;;;;;6131804;28;80267;-76
2022/07/25 03:50:44;;;;;;;17.08;8.15;;;25.60;51.90;;;;;;6131453;28;81540;-72
2022/07/25 03:57:04;;;;;;;13.77;6.07;;;25.50;51.80;;;;;;6149128;28;81373;-76
2022/07/25 04:00:05;;;;;;;23.10;6.97;;;25.30;51.90;;;;;;6152865;28;81546;-74
2022/07/25 04:03:06;;;;;;;14.48;5.97;;;25.20;52.10;;;;;;6162090;28;81356;-81
2022/07/25 04:06:06;;;;;;;17.83;6.93;;;25.20;52.20;;;;;;6157985;28;81757;-82
2022/07/25 04:09:07;;;;;;;16.95;7.63;;;25.30;52.20;;;;;;6160810;28;80477;-78
2022/07/25 04:12:07;;;;;;;21.02;7.18;;;25.30;52.50;;;;;;6151952;28;80262;-65
2022/07/25 04:15:09;;;;;;;19.02;7.47;;;25.40;52.80;;;;;;6157756;28;80614;-65
2022/07/25 04:18:09;;;;;;;17.52;7.20;;;25.50;52.40;;;;;;6137841;28;80842;-65
2022/07/25 04:21:10;;;;;;;10.18;5.57;;;25.60;52.40;;;;;;6137252;28;81827;-64
2022/07/25 04:24:10;;;;;;;26.65;6.55;;;25.60;52.60;;;;;;6132794;28;80058;-64
2022/07/25 04:27:11;;;;;;;12.32;5.03;;;25.70;52.50;;;;;;6116242;28;80257;-65
2022/07/25 04:30:11;;;;;;;13.05;4.63;;;25.70;52.40;;;;;;6134738;28;80821;-66
2022/07/25 04:33:12;;;;;;;11.75;5.10;;;25.70;52.60;;;;;;6155647;28;80574;-64
2022/07/25 04:36:12;;;;;;;12.55;5.20;;;25.80;52.50;;;;;;6161080;28;80902;-64
2022/07/25 04:39:13;;;;;;;5.82;4.28;;;25.80;52.70;;;;;;6163484;28;82259;-65
2022/07/25 04:42:13;;;;;;;8.85;4.50;;;25.90;52.70;;;;;;6146261;28;80206;-65
2022/07/25 04:45:14;;;;;;;7.68;4.15;;;25.90;52.70;;;;;;6146939;28;81322;-76
2022/07/25 04:48:14;;;;;;;8.75;4.18;;;26.00;52.80;;;;;;6155717;28;80313;-76
2022/07/25 04:51:15;;;;;;;6.32;3.80;;;26.00;53.10;;;;;;6160232;28;80498;-67
2022/07/25 04:54:15;;;;;;;10.68;4.63;;;26.10;53.00;;;;;;6147657;28;81631;-74
2022/07/25 04:57:16;;;;;;;10.27;4.03;;;26.00;52.80;;;;;;6146665;28;80753;-76
2022/07/25 05:00:16;;;;;;;8.18;4.38;;;26.00;52.90;;;;;;6160124;28;80554;-66
2022/07/25 05:03:17;;;;;;;8.70;4.13;;;26.10;53.00;;;;;;6149860;28;80990;-65
2022/07/25 05:06:17;;;;;;;11.65;4.57;;;26.10;53.10;;;;;;6160245;28;80384;-64
2022/07/25 05:09:18;;;;;;;8.48;3.92;;;26.10;53.20;;;;;;6159020;28;80250;-73
2022/07/25 05:12:19;;;;;;;7.80;3.80;;;26.10;53.50;;;;;;6159665;28;80049;-74
2022/07/25 05:15:19;;;;;;;12.50;3.97;;;26.10;53.50;;;;;;6156599;28;80490;-70
2022/07/25 05:18:20;;;;;;;8.57;4.10;;;26.10;53.40;;;;;;6152326;28;81171;-69
2022/07/25 05:21:21;;;;;;;9.57;4.35;;;26.10;52.90;;;;;;6146439;28;81828;-73
2022/07/25 05:24:21;;;;;;;9.65;4.00;;;26.10;52.70;;;;;;6154729;28;81866;-72
2022/07/25 05:27:22;;;;;;;6.93;3.72;;;26.10;52.50;;;;;;6146271;28;81315;-69
2022/07/25 05:30:22;;;;;;;13.23;4.82;;;26.20;52.80;;;;;;6144471;28;80599;-72
2022/07/25 05:33:23;;;;;;;5.85;3.45;;;26.10;52.70;;;;;;6153542;28;80889;-65
2022/07/25 05:36:24;;;;;;;8.15;4.03;;;26.10;52.70;;;;;;6150698;28;80391;-65
2022/07/25 05:39:24;;;;;;;6.55;4.38;;;26.10;52.90;;;;;;6150596;28;80874;-73
2022/07/25 05:42:25;;;;;;;6.35;3.70;;;26.10;53.00;;;;;;6150254;28;81830;-65
2022/07/25 05:45:25;;;;;;;9.32;4.10;;;26.00;53.20;;;;;;6157618;28;80845;-65
2022/07/25 05:48:26;;;;;;;8.18;3.85;;;26.00;53.40;;;;;;6138772;28;80438;-65
2022/07/25 05:51:26;;;;;;;8.95;4.32;;;26.00;53.50;;;;;;6147810;28;80898;-63
2022/07/25 05:54:27;;;;;;;8.13;5.07;;;26.10;53.60;;;;;;6136710;28;81125;-63
2022/07/25 05:57:27;;;;;;;11.65;4.82;;;26.00;53.50;;;;;;6139332;28;81976;-63
2022/07/25 06:00:28;;;;;;;12.70;3.88;;;26.10;53.60;;;;;;6144637;28;80780;-65
2022/07/25 06:03:28;;;;;;;8.63;4.53;;;26.00;53.40;;;;;;6141155;28;80476;-65
2022/07/25 06:06:31;;;;;;;12.02;4.25;;;26.00;53.60;;;;;;6142159;28;80446;-67
2022/07/25 06:09:32;;;;;;;11.38;4.85;;;26.00;54.00;;;;;;6142221;28;84928;-68
2022/07/25 06:12:32;;;;;;;6.88;4.30;;;26.10;54.00;;;;;;6150705;28;81524;-69
2022/07/25 06:15:33;;;;;;;17.95;3.80;;;26.10;53.90;;;;;;6150864;28;80376;-68
2022/07/25 06:18:33;;;;;;;10.95;4.05;;;26.00;53.90;;;;;;6151725;28;81535;-69
2022/07/25 06:21:34;;;;;;;7.47;3.47;;;26.10;54.00;;;;;;6151227;28;80562;-69
2022/07/25 06:24:34;;;;;;;3.83;3.33;;;26.10;53.90;;;;;;6149950;28;80734;-69
2022/07/25 06:27:35;;;;;;;7.88;3.75;;;26.10;53.90;;;;;;6148103;28;80712;-68
2022/07/25 06:30:35;;;;;;;4.82;3.55;;;26.10;53.80;;;;;;6154570;28;80364;-66
2022/07/25 06:33:36;;;;;;;8.82;3.85;;;26.10;53.90;;;;;;6154644;28;80500;-65
2022/07/25 06:36:36;;;;;;;5.95;4.15;;;26.10;54.20;;;;;;6154964;28;80892;-66
2022/07/25 06:39:37;;;;;;;6.57;3.33;;;26.10;54.40;;;;;;6145710;28;80750;-68
2022/07/25 06:42:37;;;;;;;12.20;4.35;;;26.10;54.30;;;;;;6148976;28;80318;-67
2022/07/25 06:45:38;;;;;;;5.88;3.38;;;26.10;54.10;;;;;;6152897;28;80633;-71
2022/07/25 06:48:38;;;;;;;6.68;3.38;;;26.20;54.00;;;;;;6155526;28;80478;-67
2022/07/25 06:51:39;;;;;;;8.05;3.45;;;26.20;53.70;;;;;;6158647;28;80349;-68
2022/07/25 06:54:39;;;;;;;15.57;3.58;;;26.20;53.80;;;;;;6150329;28;81050;-65
2022/07/25 06:57:39;;;;;;;6.38;3.38;;;26.20;53.80;;;;;;6148081;28;81616;-66
2022/07/25 07:00:40;;;;;;;11.48;3.40;;;26.20;53.50;;;;;;6151928;28;80550;-67
2022/07/25 07:03:40;;;;;;;11.00;3.63;;;26.20;53.20;;;;;;6153761;28;81725;-64
2022/07/25 07:06:42;;;;;;;5.72;3.33;;;26.30;53.00;;;;;;6152835;28;81144;-67
2022/07/25 07:09:43;;;;;;;6.55;3.20;;;26.20;53.10;;;;;;6148439;28;80825;-66
2022/07/25 07:12:43;;;;;;;6.05;3.67;;;26.10;53.90;;;;;;6152156;28;80479;-67
2022/07/25 07:15:44;;;;;;;4.78;3.05;;;26.10;54.10;;;;;;6154661;28;83732;-65
2022/07/25 07:18:44;;;;;;;7.15;3.80;;;26.20;54.00;;;;;;6142658;28;80708;-67
2022/07/25 07:21:45;;;;;;;6.18;3.22;;;26.00;54.70;;;;;;6148970;28;80399;-68
2022/07/25 07:24:45;;;;;;;6.00;3.70;;;26.10;55.00;;;;;;6153764;28;80689;-67
2022/07/25 07:27:46;;;;;;;11.52;4.07;;;25.90;55.90;;;;;;6150604;28;87933;-67
2022/07/25 07:30:46;;;;;;;7.70;3.35;;;26.00;55.70;;;;;;6150836;28;81504;-67
2022/07/25 07:33:47;;;;;;;13.00;3.45;;;26.10;55.40;;;;;;6148821;28;81141;-67
2022/07/25 07:36:47;;;;;;;4.38;3.10;;;26.10;55.10;;;;;;6146154;28;80607;-67
2022/07/25 07:39:49;;;;;;;5.95;3.33;;;25.90;55.50;;;;;;6146540;28;80670;-66
2022/07/25 07:42:49;;;;;;;6.10;3.05;;;25.70;55.40;;;;;;6151605;28;80409;-66
2022/07/25 07:45:49;;;;;;;5.25;2.67;;;25.80;55.80;;;;;;6146542;28;80490;-73
2022/07/25 07:48:50;;;;;;;4.00;2.60;;;26.00;55.40;;;;;;6152981;28;80734;-67
2022/07/25 07:51:50;;;;;;;6.00;3.00;;;26.10;55.30;;;;;;6151230;28;80259;-68
2022/07/25 07:58:10;;;;;;;7.15;3.33;;;26.30;54.80;;;;;;6153412;28;80751;-68
2022/07/25 08:01:11;;;;;;;5.38;3.10;;;26.40;55.30;;;;;;6150997;28;80995;-67
2022/07/25 08:04:11;;;;;;;3.92;2.67;;;26.30;54.10;;;;;;6154672;28;80707;-67
2022/07/25 08:07:12;;;;;;;4.60;2.97;;;26.30;54.10;;;;;;6149616;28;81242;-66
2022/07/25 08:10:12;;;;;;;6.15;3.47;;;26.40;53.80;;;;;;6151423;28;80302;-65
2022/07/25 08:13:13;;;;;;;5.95;2.97;;;26.40;53.20;;;;;;6150486;28;80080;-66
2022/07/25 08:16:13;;;;;;;4.32;3.13;;;26.40;54.10;;;;;;6154896;28;80344;-66
2022/07/25 08:19:14;;;;;;;5.25;3.08;;;26.40;53.90;;;;;;6142711;28;80304;-73
2022/07/25 08:22:14;;;;;;;8.93;4.00;;;26.40;53.80;;;;;;6158060;28;81483;-76
2022/07/25 08:25:15;;;;;;;6.32;4.10;;;26.50;54.10;;;;;;6159379;28;80642;-73
2022/07/25 08:28:15;;;;;;;6.78;4.45;;;26.60;53.90;;;;;;6144645;28;81069;-71
2022/07/25 08:31:16;;;;;;;8.98;4.80;;;26.60;54.10;;;;;;6142691;28;80532;-75
2022/07/25 08:34:18;;;;;;;7.85;5.00;;;26.60;54.20;;;;;;6161074;28;81084;-65
2022/07/25 08:37:18;;;;;;;8.52;5.15;;;26.70;54.30;;;;;;6160049;28;81736;-62
2022/07/25 08:40:19;;;;;;;6.18;3.95;;;26.70;53.40;;;;;;6152302;28;80444;-68
2022/07/25 08:43:19;;;;;;;6.82;3.17;;;26.70;52.80;;;;;;6158564;28;84576;-65
2022/07/25 08:46:20;;;;;;;9.25;3.00;;;26.70;52.60;;;;;;6154452;28;80732;-65
2022/07/25 08:49:20;;;;;;;6.05;3.20;;;26.70;51.80;;;;;;6155632;28;82309;-66
2022/07/25 08:52:21;;;;;;;3.13;2.30;;;26.70;51.60;;;;;;6150003;28;80759;-65
2022/07/25 08:55:21;;;;;;;7.55;3.10;;;26.70;51.30;;;;;;6154028;28;80832;-65
2022/07/25 08:58:22;;;;;;;3.20;2.53;;;26.70;51.10;;;;;;6154131;28;80755;-65
2022/07/25 09:01:22;;;;;;;3.42;2.40;;;26.70;51.50;;;;;;6159719;28;80106;-65
2022/07/25 09:04:23;;;;;;;3.35;2.20;;;26.70;50.20;;;;;;6153897;28;80311;-65
2022/07/25 09:07:23;;;;;;;4.78;2.55;;;26.70;50.10;;;;;;6153604;28;80395;-64
2022/07/25 09:10:24;;;;;;;3.03;2.33;;;26.70;50.00;;;;;;6154978;28;82551;-63
2022/07/25 09:13:24;;;;;;;4.18;2.30;;;26.80;50.10;;;;;;6151287;28;81320;-65
2022/07/25 09:16:25;;;;;;;4.13;2.00;;;26.80;49.90;;;;;;6151077;28;80370;-66
2022/07/25 09:19:25;;;;;;;9.25;2.65;;;26.80;50.00;;;;;;6156981;28;80279;-66
2022/07/25 09:22:26;;;;;;;2.35;2.00;;;26.80;50.60;;;;;;6150114;28;81052;-66
2022/07/25 09:25:29;;;;;;;5.07;2.08;;;26.80;50.80;;;;;;6156163;28;81847;-66
2022/07/25 09:28:30;;;;;;;3.45;2.10;;;26.90;50.70;;;;;;6153067;28;81515;-72
2022/07/25 09:31:30;;;;;;;5.20;2.58;;;26.90;50.40;;;;;;6154400;28;79932;-69
2022/07/25 09:34:32;;;;;;;2.80;2.38;;;27.00;49.60;;;;;;6156249;28;80464;-68
2022/07/25 09:37:33;;;;;;;2.85;2.05;;;27.00;50.10;;;;;;6143294;28;80944;-66
2022/07/25 09:40:33;;;;;;;4.95;1.90;;;27.00;48.40;;;;;;6153296;28;80516;-67
2022/07/25 09:43:34;;;;;;;3.22;2.00;;;27.00;48.40;;;;;;6150789;28;81776;-66
2022/07/25 09:46:35;;;;;;;2.97;2.10;;;27.00;48.80;;;;;;6161705;28;80599;-65
2022/07/25 09:49:35;;;;;;;12.23;2.20;;;27.00;48.40;;;;;;6151062;28;80425;-65
2022/07/25 09:52:36;;;;;;;3.80;1.92;;;27.10;48.50;;;;;;6147620;28;81981;-64
2022/07/25 09:55:36;;;;;;;3.53;1.70;;;27.10;48.60;;;;;;6144981;28;80851;-64
2022/07/25 09:58:37;;;;;;;6.72;1.88;;;27.10;48.20;;;;;;6141232;28;80767;-65
2022/07/25 10:01:37;;;;;;;3.65;1.80;;;27.10;46.80;;;;;;6147788;28;80709;-67
2022/07/25 10:04:38;;;;;;;8.80;1.83;;;27.00;45.40;;;;;;6153195;28;81055;-64
2022/07/25 10:07:38;;;;;;;4.32;1.77;;;27.00;45.40;;;;;;6149632;28;80926;-64
2022/07/25 10:10:40;;;;;;;2.30;1.90;;;27.10;46.60;;;;;;6148831;28;81233;-64
2022/07/25 10:13:40;;;;;;;2.00;1.70;;;27.10;46.00;;;;;;6145715;28;80389;-65
2022/07/25 10:16:41;;;;;;;1.85;1.60;;;27.10;46.40;;;;;;6151537;28;80076;-65
2022/07/25 10:19:41;;;;;;;3.20;1.88;;;27.10;45.20;;;;;;6150959;28;80648;-65
2022/07/25 10:22:42;;;;;;;2.22;1.60;;;27.10;45.40;;;;;;6154735;28;81082;-67
2022/07/25 10:25:43;;;;;;;3.58;1.60;;;27.20;45.30;;;;;;6155669;28;80355;-67
2022/07/25 10:28:43;;;;;;;3.63;2.03;;;27.10;44.60;;;;;;6145201;28;81657;-69
2022/07/25 10:31:44;;;;;;;9.05;2.10;;;27.10;44.50;;;;;;6154504;28;80310;-64
2022/07/25 10:34:45;;;;;;;2.22;1.70;;;27.10;43.80;;;;;;6156102;28;80467;-66
2022/07/25 10:37:46;;;;;;;1.92;1.80;;;27.10;44.10;;;;;;6150403;28;80363;-66
2022/07/25 10:40:46;;;;;;;2.75;1.80;;;27.10;44.30;;;;;;6144282;28;80848;-65
2022/07/25 10:43:47;;;;;;;1.60;1.50;;;27.20;44.60;;;;;;6149142;28;81794;-64
2022/07/25 10:46:49;;;;;;;2.70;1.98;;;27.20;45.00;;;;;;6144727;28;80134;-65
2022/07/25 10:49:50;;;;;;;1.85;1.75;;;27.20;44.60;;;;;;6136394;28;80884;-66
2022/07/25 10:52:50;;;;;;;5.50;2.30;;;27.20;44.80;;;;;;6134637;28;80547;-66
2022/07/25 10:55:51;;;;;;;8.05;2.10;;;27.20;44.70;;;;;;6152426;28;80588;-65
2022/07/25 10:58:51;;;;;;;2.03;1.90;;;27.20;43.80;;;;;;6154180;28;80600;-65
2022/07/25 11:01:52;;;;;;;3.78;1.58;;;27.20;44.00;;;;;;6149071;28;80702;-64
2022/07/25 11:04:52;;;;;;;1.33;1.23;;;27.20;43.70;;;;;;6144379;28;81633;-65
2022/07/25 11:07:53;;;;;;;1.90;1.70;;;27.30;44.00;;;;;;6150235;28;80566;-66
2022/07/25 11:10:53;;;;;;;1.60;1.50;;;27.30;43.80;;;;;;6150892;28;81387;-65
2022/07/25 11:13:54;;;;;;;1.73;1.63;;;27.20;43.60;;;;;;6154131;28;80286;-67
2022/07/25 11:16:55;;;;;;;4.07;1.63;;;27.30;43.70;;;;;;6156839;28;80475;-67
2022/07/25 11:19:56;;;;;;;2.78;1.48;;;27.20;43.10;;;;;;6154072;28;80275;-68
2022/07/25 11:22:56;;;;;;;8.70;2.22;;;27.20;42.90;;;;;;6141889;28;81511;-65
2022/07/25 11:25:57;;;;;;;1.95;1.65;;;27.20;43.10;;;;;;6151520;28;80493;-66
2022/07/25 11:28:57;;;;;;;2.63;1.50;;;27.20;43.50;;;;;;6149401;28;80483;-67
2022/07/25 11:31:58;;;;;;;1.75;1.63;;;27.20;44.00;;;;;;6156240;28;81057;-66
2022/07/25 11:34:58;;;;;;;2.63;1.55;;;27.30;44.40;;;;;;6153935;28;81566;-67
2022/07/25 11:38:01;;;;;;;2.95;1.50;;;27.40;44.60;;;;;;6157192;28;80491;-67
2022/07/25 11:41:01;;;;;;;1.95;1.75;;;27.40;44.40;;;;;;6155756;28;81357;-67
2022/07/25 11:44:02;;;;;;;2.70;1.83;;;27.40;44.80;;;;;;6149646;28;81012;-66
2022/07/25 11:47:02;;;;;;;2.05;1.60;;;27.40;44.60;;;;;;6158814;28;80385;-66
2022/07/25 11:50:03;;;;;;;1.58;1.48;;;27.40;44.40;;;;;;6157904;28;80703;-66
2022/07/25 11:53:03;;;;;;;2.28;1.63;;;27.40;44.00;;;;;;6161302;28;80884;-67
2022/07/25 11:56:04;;;;;;;2.00;1.67;;;27.40;43.60;;;;;;6155534;28;80227;-67
2022/07/25 11:59:04;;;;;;;3.20;1.58;;;27.40;43.80;;;;;;6159153;28;80686;-66
2022/07/25 12:02:05;;;;;;;3.22;1.50;;;27.40;43.00;;;;;;6153138;28;80657;-68
2022/07/25 12:05:06;;;;;;;1.88;1.60;;;27.60;41.80;;;;;;6158507;28;80224;-65
2022/07/25 12:08:06;;;;;;;1.30;1.20;;;27.60;42.80;;;;;;6147844;28;80806;-66
2022/07/25 12:11:06;;;;;;;2.50;1.95;;;27.60;43.70;;;;;;6161011;28;80928;-66
2022/07/25 12:14:07;;;;;;;5.43;1.77;;;27.70;43.20;;;;;;6161216;28;80456;-65
2022/07/25 12:17:08;;;;;;;1.52;1.42;;;27.80;44.60;;;;;;6154174;28;81298;-66
2022/07/25 12:20:08;;;;;;;2.00;1.80;;;28.00;43.10;;;;;;6155387;28;81059;-66
2022/07/25 12:23:09;;;;;;;2.85;2.03;;;28.00;44.00;;;;;;6153005;28;80186;-66
2022/07/25 12:26:12;;;;;;;1.88;1.65;;;28.00;43.80;;;;;;6156363;28;80432;-66
2022/07/25 12:29:12;;;;;;;4.30;1.70;;;28.00;43.70;;;;;;6153989;28;81402;-66
2022/07/25 12:32:13;;;;;;;2.95;2.30;;;28.00;43.90;;;;;;6148697;28;80501;-67
2022/07/25 12:35:14;;;;;;;2.20;1.40;;;28.00;44.60;;;;;;6143671;28;81109;-67
2022/07/25 12:38:14;;;;;;;3.58;1.83;;;27.90;44.40;;;;;;6147331;28;80577;-68
2022/07/25 12:41:16;;;;;;;1.75;1.65;;;27.90;44.10;;;;;;6148024;28;81071;-67
2022/07/25 12:44:16;;;;;;;2.90;1.73;;;28.00;43.20;;;;;;6146983;28;80786;-66
2022/07/25 12:47:17;;;;;;;3.65;2.53;;;28.20;42.60;;;;;;6147147;28;81033;-66
2022/07/25 12:50:17;;;;;;;2.92;1.58;;;28.20;43.10;;;;;;6143685;28;80703;-65
2022/07/25 12:53:18;;;;;;;2.10;1.52;;;28.30;42.10;;;;;;6158112;28;83078;-65
2022/07/25 12:56:18;;;;;;;4.07;2.03;;;28.40;41.50;;;;;;6146677;28;80476;-65
2022/07/25 12:59:19;;;;;;;2.90;2.10;;;28.40;41.80;;;;;;6148417;28;80497;-64
2022/07/25 13:02:19;;;;;;;2.20;1.77;;;28.30;41.90;;;;;;6164132;28;81503;-64
2022/07/25 13:05:19;;;;;;;2.50;1.83;;;28.30;42.40;;;;;;6161059;28;81777;-63
2022/07/25 13:08:20;;;;;;;3.05;1.98;;;28.30;43.10;;;;;;6152749;28;80496;-64
2022/07/25 13:11:21;;;;;;;2.17;1.73;;;28.30;43.40;;;;;;6155348;28;80606;-64
2022/07/25 13:14:21;;;;;;;2.50;1.70;;;28.30;43.10;;;;;;6155104;28;80587;-64
2022/07/25 13:17:21;;;;;;;4.38;2.00;;;28.30;43.40;;;;;;6157812;28;80331;-65
2022/07/25 13:20:22;;;;;;;4.13;1.92;;;28.30;43.60;;;;;;6148261;28;80410;-65
2022/07/25 13:23:22;;;;;;;1.67;1.58;;;28.30;43.10;;;;;;6159625;28;80114;-64
2022/07/25 13:26:23;;;;;;;4.38;1.90;;;28.30;43.00;;;;;;6157369;28;81542;-64
2022/07/25 13:29:23;;;;;;;2.25;1.73;;;28.30;43.10;;;;;;6141341;28;80592;-63
2022/07/25 13:32:25;;;;;;;2.45;1.58;;;28.30;42.50;;;;;;6142787;28;80886;-76
2022/07/25 13:35:26;;;;;;;1.60;1.50;;;28.30;42.80;;;;;;6149855;28;80392;-64
2022/07/25 13:38:26;;;;;;;1.52;1.42;;;28.30;43.60;;;;;;6147270;28;82059;-64
2022/07/25 13:41:27;;;;;;;2.30;1.80;;;28.30;43.00;;;;;;6151713;28;81411;-65
2022/07/25 13:44:27;;;;;;;3.63;2.17;;;28.30;42.70;;;;;;6154824;28;80593;-64
2022/07/25 13:47:29;;;;;;;1.50;1.40;;;28.30;43.10;;;;;;6156462;28;81093;-64
2022/07/25 13:50:29;;;;;;;3.38;1.65;;;28.30;43.40;;;;;;6155109;28;80921;-73
2022/07/25 13:53:30;;;;;;;3.33;2.00;;;28.30;43.60;;;;;;6156372;28;80372;-64
2022/07/25 13:56:30;;;;;;;3.08;2.13;;;28.20;44.20;;;;;;6150447;28;80136;-64
2022/07/25 13:59:31;;;;;;;192.00;64.82;;;28.20;45.20;;;;;;6151327;28;80824;-65
2022/07/25 14:02:31;;;;;;;65.93;24.80;;;28.20;46.00;;;;;;6134363;28;83401;-66
2022/07/25 14:05:32;;;;;;;58.13;19.92;;;28.20;45.00;;;;;;6138019;28;86050;-65
2022/07/25 14:08:33;;;;;;;32.15;13.48;;;28.20;45.10;;;;;;6146175;28;83096;-63
2022/07/25 14:11:33;;;;;;;31.25;12.50;;;28.20;45.20;;;;;;6154123;28;83490;-64
2022/07/25 14:14:34;;;;;;;36.13;9.77;;;28.20;45.40;;;;;;6138286;28;84225;-64
2022/07/25 14:17:34;;;;;;;26.52;9.38;;;28.10;45.60;;;;;;6139424;28;81963;-65
2022/07/25 14:20:35;;;;;;;15.73;7.20;;;28.20;45.70;;;;;;6145486;28;80488;-67
2022/07/25 14:23:35;;;;;;;16.92;5.85;;;28.10;46.10;;;;;;6152511;28;80289;-70
2022/07/25 14:26:37;;;;;;;13.48;6.32;;;28.20;45.90;;;;;;6139353;28;80363;-66
2022/07/25 14:29:37;;;;;;;12.75;4.72;;;28.10;46.00;;;;;;6141033;28;81378;-67
2022/07/25 14:32:37;;;;;;;15.75;4.68;;;28.10;45.90;;;;;;6150884;28;80889;-64
2022/07/25 14:35:38;;;;;;;9.75;4.10;;;28.10;46.20;;;;;;6147823;28;80596;-64
2022/07/25 14:38:39;;;;;;;5.93;3.28;;;28.10;46.50;;;;;;6149426;28;81525;-65
2022/07/25 14:41:39;;;;;;;8.23;3.55;;;28.20;46.60;;;;;;6149878;28;80456;-66
2022/07/25 14:44:40;;;;;;;5.00;3.03;;;28.10;46.60;;;;;;6146955;28;80928;-65
2022/07/25 14:47:40;;;;;;;8.07;3.15;;;28.20;46.70;;;;;;6153067;28;80337;-66
2022/07/25 14:50:41;;;;;;;4.65;2.75;;;28.10;46.60;;;;;;6142250;28;81756;-64
2022/07/25 14:53:41;;;;;;;5.22;2.72;;;28.10;46.40;;;;;;6145154;28;80373;-65
2022/07/25 14:56:42;;;;;;;3.42;2.55;;;28.10;46.50;;;;;;6158257;28;80535;-65
2022/07/25 14:59:42;;;;;;;4.63;2.67;;;28.10;46.50;;;;;;6149833;28;80361;-64
2022/07/25 15:02:43;;;;;;;6.78;2.55;;;28.10;46.40;;;;;;6158908;28;80683;-65
2022/07/25 15:05:43;;;;;;;2.38;1.63;;;28.10;46.20;;;;;;6149770;28;80677;-65
2022/07/25 15:08:44;;;;;;;4.57;2.20;;;28.10;45.50;;;;;;6158019;28;80515;-65
2022/07/25 15:11:44;;;;;;;5.03;1.90;;;28.10;45.50;;;;;;6155559;28;81510;-65
2022/07/25 15:14:45;;;;;;;4.78;2.00;;;28.10;45.00;;;;;;6159524;28;80462;-66
2022/07/25 15:17:45;;;;;;;4.13;1.80;;;28.10;45.10;;;;;;6151930;28;80871;-66
2022/07/25 15:20:47;;;;;;;2.47;1.90;;;28.10;45.20;;;;;;6161265;28;80050;-65
2022/07/25 15:23:47;;;;;;;19.02;2.28;;;28.10;45.40;;;;;;6159834;28;80514;-66
2022/07/25 15:26:48;;;;;;;2.10;1.75;;;28.10;45.60;;;;;;6160383;28;81242;-66
2022/07/25 15:29:49;;;;;;;2.95;1.80;;;28.00;45.10;;;;;;6155059;28;80339;-66
2022/07/25 15:32:49;;;;;;;2.10;1.88;;;28.00;45.20;;;;;;6147327;28;80368;-66
2022/07/25 15:35:50;;;;;;;2.55;1.80;;;28.00;45.30;;;;;;6151166;28;80916;-64
2022/07/25 15:38:50;;;;;;;6.50;2.17;;;28.00;45.00;;;;;;6156105;28;80773;-65
2022/07/25 15:41:51;;;;;;;2.72;1.85;;;28.00;45.40;;;;;;6154948;28;80401;-63
2022/07/25 15:44:51;;;;;;;3.70;1.95;;;28.00;44.80;;;;;;6155341;28;80382;-65